Time;durP1;ratioP1;P1;durP2;ratioP2;P2;SDS_P1;SDS_P2;PMS_P1;PMS_P2;Temp;Humidity;BMP_temperature;BMP_pressure;BME280_temperature;BME280_humidity;BME280_pressure;Samples;Min_cycle;Max_cycle;Signal;HPM_P1;HPM_P2
2022/05/13 00:02:22;;;;;;;6.57;6.07;;;;;;;20.47;44.14;94849.19;4788275;30;20439;-80
2022/05/13 00:04:48;;;;;;;7.17;6.13;;;;;;;20.33;44.73;94847.97;4799930;29;20198;-79
2022/05/13 00:07:14;;;;;;;5.77;5.40;;;;;;;20.24;44.74;94852.13;4786246;30;20523;-79
2022/05/13 00:09:59;;;;;;;7.70;6.63;;;;;;;20.29;44.57;94849.53;4782429;30;20957;-80
2022/05/13 00:12:26;;;;;;;6.73;6.13;;;;;;;20.22;44.67;94851.56;4802730;29;20431;-80
2022/05/13 00:14:53;;;;;;;6.30;5.80;;;;;;;19.86;45.37;94843.19;4802194;29;20431;-80
2022/05/13 00:17:19;;;;;;;6.33;5.83;;;;;;;19.58;46.87;94844.13;4802747;29;20443;-80
2022/05/13 00:19:45;;;;;;;7.30;6.70;;;;;;;19.64;45.99;94841.31;4790787;29;20467;-80
2022/05/13 00:22:12;;;;;;;7.10;6.43;;;;;;;19.75;45.80;94844.09;4798498;29;20509;-80
2022/05/13 00:24:37;;;;;;;6.07;5.67;;;;;;;19.88;45.14;94844.56;4797778;30;20209;-80
2022/05/13 00:27:03;;;;;;;6.23;5.73;;;;;;;19.95;44.76;94844.34;4795203;29;20440;-80
2022/05/13 00:29:28;;;;;;;6.40;5.87;;;;;;;19.87;45.21;94847.47;4802134;30;20193;-80
2022/05/13 00:31:54;;;;;;;6.67;6.00;;;;;;;19.95;44.49;94849.69;4785416;30;20475;-80
2022/05/13 00:34:21;;;;;;;9.37;6.37;;;;;;;19.88;44.94;94843.75;4802510;30;20223;-79
2022/05/13 00:36:47;;;;;;;7.07;6.20;;;;;;;19.88;45.20;94846.41;4782198;30;20194;-80
2022/05/13 00:39:13;;;;;;;5.77;5.37;;;;;;;19.84;44.55;94842.63;4794931;29;20475;-80
2022/05/13 00:41:38;;;;;;;6.67;6.10;;;;;;;20.06;44.15;94846.09;4785905;30;20475;-80
2022/05/13 00:44:05;;;;;;;7.70;5.27;;;;;;;19.62;44.84;94846.06;4776889;30;20466;-80
2022/05/13 00:46:31;;;;;;;7.80;6.30;;;;;;;19.92;44.26;94850.19;4790972;30;20530;-79
2022/05/13 00:49:01;;;;;;;6.40;5.87;;;;;;;20.01;43.79;94848.69;4785487;30;20631;-80
2022/05/13 00:51:30;;;;;;;6.07;5.67;;;;;;;19.97;43.84;94852.88;4801704;29;20629;-79
2022/05/13 00:53:57;;;;;;;6.20;5.80;;;;;;;19.79;44.00;94848.69;4783143;30;20470;-80
2022/05/13 00:56:23;;;;;;;6.13;5.63;;;;;;;19.89;44.20;94850.66;4799860;29;20435;-80
2022/05/13 00:58:53;;;;;;;7.63;7.03;;;;;;;19.62;45.08;94846.06;4785608;30;20983;-79
2022/05/13 01:01:20;;;;;;;5.40;4.97;;;;;;;19.76;44.87;94856.34;4791632;29;20440;-80
2022/05/13 01:03:50;;;;;;;6.37;5.80;;;;;;;19.56;45.84;94852.34;4787747;30;20442;-81
2022/05/13 01:06:20;;;;;;;5.33;5.03;;;;;;;19.53;45.13;94858.16;4795819;29;20450;-80
2022/05/13 01:08:47;;;;;;;6.43;5.83;;;;;;;19.69;44.80;94854.66;4801653;29;20479;-79
2022/05/13 01:11:18;;;;;;;9.30;6.07;;;;;;;19.67;44.80;94859.41;4801737;29;20800;-80
2022/05/13 01:13:48;;;;;;;6.53;6.03;;;;;;;19.63;44.85;94852.97;4793975;29;20425;-80
2022/05/13 01:16:13;;;;;;;7.97;5.90;;;;;;;19.72;44.05;94858.69;4797711;30;20446;-80
2022/05/13 01:18:42;;;;;;;5.60;5.20;;;;;;;19.31;44.53;94848.31;4800242;29;20478;-80
2022/05/13 01:21:13;;;;;;;5.80;5.40;;;;;;;19.53;44.29;94847.53;4785192;30;20190;-80
2022/05/13 01:23:44;;;;;;;6.40;5.80;;;;;;;19.73;43.87;94840.91;4784706;30;20519;-80
2022/05/13 01:26:13;;;;;;;5.90;5.40;;;;;;;19.47;44.72;94848.53;4800551;29;20438;-80
2022/05/13 01:28:42;;;;;;;7.30;6.70;;;;;;;19.23;45.20;94843.41;4801131;29;20482;-80
2022/05/13 01:31:12;;;;;;;6.03;5.60;;;;;;;19.39;45.12;94849.75;4781978;30;20526;-80
2022/05/13 01:33:39;;;;;;;7.20;6.13;;;;;;;19.52;44.91;94835.31;4776021;30;20439;-80
2022/05/13 01:36:06;;;;;;;6.90;5.53;;;;;;;19.27;45.15;94828.63;4781691;30;20507;-80
2022/05/13 01:38:36;;;;;;;7.10;6.57;;;;;;;19.34;45.04;94825.78;4767179;29;20464;-80
2022/05/13 01:41:02;;;;;;;7.67;7.07;;;;;;;19.44;45.74;94833.88;4784550;30;20499;-79
2022/05/13 01:43:28;;;;;;;6.27;5.70;;;;;;;19.22;45.60;94836.50;4769077;30;20471;-79
2022/05/13 01:45:54;;;;;;;6.00;5.50;;;;;;;19.28;45.58;94832.06;4784090;30;20452;-81
2022/05/13 01:48:20;;;;;;;6.27;5.73;;;;;;;19.25;45.40;94828.03;4784499;30;20210;-80
2022/05/13 01:50:46;;;;;;;5.77;5.40;;;;;;;19.49;44.79;94819.88;4784968;30;20428;-80
2022/05/13 01:53:12;;;;;;;6.40;5.80;;;;;;;19.35;45.09;94818.59;4781534;30;20520;-80
2022/05/13 01:55:42;;;;;;;6.10;5.60;;;;;;;19.28;44.96;94816.94;4785186;29;20200;-80
2022/05/13 01:58:09;;;;;;;6.10;5.60;;;;;;;19.01;45.52;94823.97;4784770;30;20431;-80
2022/05/13 02:00:35;;;;;;;6.77;6.17;;;;;;;19.18;45.56;94818.63;4798579;29;20478;-80
2022/05/13 02:05:45;;;;;;;6.83;6.33;;;;;;;18.86;46.16;94828.00;4795613;29;20203;-81
2022/05/13 02:08:10;;;;;;;6.60;6.03;;;;;;;18.95;46.23;94819.63;4799577;29;20451;-80
2022/05/13 02:10:35;;;;;;;9.50;5.60;;;;;;;19.09;46.51;94819.06;4796477;29;20248;-80
2022/05/13 02:13:01;;;;;;;5.90;5.50;;;;;;;19.02;46.34;94825.59;4793535;29;20237;-80
2022/05/13 02:15:26;;;;;;;7.43;6.60;;;;;;;19.13;46.28;94830.00;4783044;30;20710;-80
2022/05/13 02:17:52;;;;;;;7.13;6.23;;;;;;;19.02;46.81;94833.53;4792587;29;20646;-81
2022/05/13 02:20:17;;;;;;;6.47;5.90;;;;;;;18.96;46.38;94839.81;4800603;30;20285;-79
2022/05/13 02:22:43;;;;;;;6.83;6.17;;;;;;;18.84;46.56;94838.06;4783553;30;20189;-80
2022/05/13 02:25:09;;;;;;;6.30;5.80;;;;;;;18.86;46.67;94843.91;4800440;29;20202;-80
2022/05/13 02:27:34;;;;;;;7.30;6.13;;;;;;;18.45;47.36;94843.19;4799578;29;20280;-80
2022/05/13 02:30:00;;;;;;;6.33;5.83;;;;;;;18.64;47.04;94840.34;4798417;29;20537;-80
2022/05/13 02:32:25;;;;;;;9.07;5.90;;;;;;;18.68;47.10;94842.25;4782447;30;20250;-80
2022/05/13 02:34:51;;;;;;;6.37;5.77;;;;;;;18.54;47.59;94841.75;4782078;29;20509;-81
2022/05/13 02:37:16;;;;;;;6.73;5.47;;;;;;;18.68;46.90;94846.75;4783524;30;20624;-80
2022/05/13 02:39:42;;;;;;;6.90;5.70;;;;;;;18.70;46.82;94847.31;4792451;29;20279;-81
2022/05/13 02:42:07;;;;;;;11.17;7.10;;;;;;;18.89;45.92;94843.44;4785516;30;20206;-80
2022/05/13 02:44:33;;;;;;;7.80;5.60;;;;;;;18.88;46.50;94847.13;4796751;29;20201;-80
2022/05/13 02:46:58;;;;;;;6.53;6.00;;;;;;;18.29;47.50;94846.63;4798500;29;20265;-80
2022/05/13 02:49:23;;;;;;;7.40;6.80;;;;;;;17.95;48.41;94855.25;4797619;30;20280;-78
2022/05/13 02:51:49;;;;;;;7.60;6.80;;;;;;;18.41;47.60;94855.31;4799664;29;20268;-80
2022/05/13 02:54:16;;;;;;;7.97;7.17;;;;;;;18.60;46.83;94855.13;4799918;30;20662;-80
2022/05/13 02:56:43;;;;;;;8.27;6.43;;;;;;;18.62;47.10;94853.03;4799647;29;20439;-79
2022/05/13 02:59:08;;;;;;;6.83;6.20;;;;;;;19.16;45.71;94841.97;4799971;30;20466;-80
2022/05/13 03:01:34;;;;;;;6.83;6.20;;;;;;;18.74;46.86;94843.13;4796232;29;20458;-80
2022/05/13 03:04:00;;;;;;;8.63;6.70;;;;;;;18.78;46.51;94854.06;4784140;30;20244;-80
2022/05/13 03:06:26;;;;;;;10.10;6.83;;;;;;;18.69;47.30;94851.03;4783420;30;20450;-80
2022/05/13 03:08:53;;;;;;;6.83;6.33;;;;;;;18.63;46.87;94850.13;4781227;29;20435;-81
2022/05/13 03:11:20;;;;;;;6.93;6.30;;;;;;;18.79;46.66;94848.53;4787740;30;20549;-81
2022/05/13 03:13:47;;;;;;;7.40;6.80;;;;;;;18.71;47.22;94847.09;4794923;30;20447;-80
2022/05/13 03:16:19;;;;;;;6.77;6.07;;;;;;;18.67;47.71;94845.16;4799832;29;20439;-79
2022/05/13 03:18:46;;;;;;;7.23;6.10;;;;;;;18.81;47.27;94846.47;4783779;30;20478;-80
2022/05/13 03:21:12;;;;;;;7.87;6.83;;;;;;;18.63;47.70;94849.31;4796498;29;20440;-80
2022/05/13 03:23:42;;;;;;;14.87;7.80;;;;;;;18.76;47.44;94854.31;4781833;29;20464;-80
2022/05/13 03:26:08;;;;;;;12.47;7.93;;;;;;;18.96;47.11;94855.72;4781788;29;20440;-81
2022/05/13 03:28:34;;;;;;;8.77;7.87;;;;;;;18.97;47.22;94857.31;4782185;30;20493;-80
2022/05/13 03:31:00;;;;;;;8.23;7.20;;;;;;;18.83;47.61;94862.94;4787650;29;20471;-81
2022/05/13 03:33:25;;;;;;;8.57;7.57;;;;;;;18.85;47.68;94868.81;4783668;30;20189;-80
2022/05/13 03:35:51;;;;;;;12.70;7.80;;;;;;;19.01;47.76;94866.41;4793983;29;20508;-80
2022/05/13 03:38:17;;;;;;;11.80;10.60;;;;;;;18.78;47.56;94860.19;4799994;29;20266;-80
2022/05/13 03:40:42;;;;;;;7.70;6.73;;;;;;;19.24;46.46;94860.13;4791980;29;20233;-81
2022/05/13 03:43:08;;;;;;;9.40;8.43;;;;;;;19.18;46.69;94872.53;4784070;30;20250;-80
2022/05/13 03:45:35;;;;;;;15.20;7.77;;;;;;;18.99;47.29;94868.50;4788725;29;20189;-81
2022/05/13 03:48:02;;;;;;;7.80;7.00;;;;;;;19.14;46.83;94866.06;4778681;30;20298;-80
2022/05/13 03:50:27;;;;;;;8.10;7.43;;;;;;;18.91;47.76;94872.34;4798622;30;20514;-80
2022/05/13 03:52:54;;;;;;;7.73;7.03;;;;;;;19.01;47.39;94871.69;4799353;29;20462;-80
2022/05/13 03:55:20;;;;;;;10.97;7.87;;;;;;;18.87;47.82;94871.22;4803510;29;20548;-80
2022/05/13 03:57:45;;;;;;;14.20;8.70;;;;;;;19.13;47.64;94883.06;4785962;29;20448;-80
2022/05/13 04:00:13;;;;;;;10.93;8.80;;;;;;;18.84;47.97;94882.34;4798649;29;20476;-81
2022/05/13 04:02:38;;;;;;;8.67;7.87;;;;;;;18.84;48.04;94888.44;4777353;30;20217;-80
2022/05/13 04:10:36;;;;;;;9.40;8.23;;;;;;;19.55;46.18;94893.22;4792214;30;20499;-81
2022/05/13 04:16:04;;;;;;;12.03;10.83;;;;;;;19.45;46.80;94893.09;4784819;30;20254;-79
2022/05/13 04:18:31;;;;;;;15.37;11.80;;;;;;;19.20;47.27;94896.97;4799040;29;20443;-80
2022/05/13 04:20:57;;;;;;;12.17;10.97;;;;;;;19.63;46.15;94898.09;4801897;29;20453;-81
2022/05/13 04:23:23;;;;;;;13.07;11.90;;;;;;;19.42;47.15;94899.66;4790844;30;20438;-80
2022/05/13 04:25:48;;;;;;;13.33;11.93;;;;;;;19.65;47.21;94903.19;4800939;29;20868;-81
2022/05/13 04:28:14;;;;;;;17.17;13.63;;;;;;;19.80;46.65;94899.97;4801559;30;20204;-80
2022/05/13 04:30:40;;;;;;;14.20;12.47;;;;;;;19.57;47.30;94899.09;4791394;29;20273;-80
2022/05/13 04:33:05;;;;;;;13.10;11.90;;;;;;;19.53;47.67;94905.13;4767542;30;20205;-80
2022/05/13 04:35:31;;;;;;;14.30;12.97;;;;;;;20.01;46.14;94901.03;4788339;29;20245;-80
2022/05/13 04:37:56;;;;;;;18.53;14.57;;;;;;;19.55;46.68;94900.38;4801471;29;20676;-80
2022/05/13 04:40:22;;;;;;;14.67;13.17;;;;;;;19.34;47.42;94907.25;4777841;30;20234;-79
2022/05/13 04:42:50;;;;;;;16.23;14.50;;;;;;;19.64;46.59;94905.03;4784917;29;20194;-80
2022/05/13 04:45:25;;;;;;;15.53;13.90;;;;;;;19.31;47.46;94904.03;4797184;30;20232;-81
2022/05/13 04:50:51;;;;;;;15.27;13.60;;;;;;;20.26;45.53;94908.47;4799000;29;20450;-80
2022/05/13 04:53:22;;;;;;;15.87;14.10;;;;;;;20.54;45.02;94909.31;4770038;30;20428;-81
2022/05/13 04:55:49;;;;;;;13.53;12.37;;;;;;;20.63;44.62;94905.19;4783278;29;20417;-81
2022/05/13 04:58:15;;;;;;;21.27;13.20;;;;;;;20.70;44.26;94900.50;4783252;30;20798;-80
2022/05/13 05:00:41;;;;;;;21.23;13.47;;;;;;;20.83;44.26;94912.56;4788065;29;20485;-80
2022/05/13 05:03:06;;;;;;;15.23;13.57;;;;;;;20.83;44.23;94908.06;4801368;30;20568;-80
2022/05/13 05:05:32;;;;;;;20.17;11.53;;;;;;;20.58;44.49;94916.56;4795638;29;20272;-81
2022/05/13 05:07:57;;;;;;;14.80;12.97;;;;;;;20.22;46.04;94907.38;4785879;30;20235;-80
2022/05/13 05:10:23;;;;;;;14.13;12.60;;;;;;;20.22;45.95;94910.03;4786116;29;20214;-80
2022/05/13 05:12:54;;;;;;;12.93;11.70;;;;;;;20.91;44.69;94916.66;4800653;29;20201;-81
2022/05/13 05:15:19;;;;;;;12.63;11.43;;;;;;;21.16;43.58;94914.19;4797678;30;20254;-81
2022/05/13 05:17:44;;;;;;;16.70;11.80;;;;;;;21.59;42.97;94917.72;4782623;30;20442;-81
2022/05/13 05:20:10;;;;;;;13.30;12.10;;;;;;;21.88;41.91;94927.22;4794248;30;20222;-81
2022/05/13 05:22:37;;;;;;;14.20;12.43;;;;;;;21.85;42.03;94925.88;4797064;29;20194;-80
2022/05/13 05:25:02;;;;;;;15.10;12.70;;;;;;;21.92;41.98;94922.97;4792301;29;20467;-80
2022/05/13 05:27:28;;;;;;;18.87;13.30;;;;;;;22.15;41.51;94927.09;4797300;29;20963;-80
2022/05/13 05:29:53;;;;;;;16.80;12.80;;;;;;;22.10;41.04;94922.53;4777480;30;20204;-81
2022/05/13 05:32:19;;;;;;;16.23;13.37;;;;;;;21.98;41.79;94925.41;4780131;30;20694;-81
2022/05/13 05:34:44;;;;;;;13.53;12.13;;;;;;;22.28;40.95;94920.50;4784075;30;20198;-81
2022/05/13 05:37:10;;;;;;;12.73;11.40;;;;;;;22.31;40.28;94928.78;4783809;30;20256;-82
2022/05/13 05:39:35;;;;;;;15.03;11.43;;;;;;;22.42;40.30;94927.78;4779934;30;20230;-81
2022/05/13 05:42:01;;;;;;;13.10;11.83;;;;;;;22.06;41.21;94924.09;4795035;29;20229;-80
2022/05/13 05:44:26;;;;;;;17.03;12.23;;;;;;;22.91;39.25;94915.84;4787063;29;20243;-81
2022/05/13 05:46:52;;;;;;;12.07;10.87;;;;;;;22.88;38.53;94918.25;4797822;29;20199;-81
2022/05/13 05:49:19;;;;;;;12.63;11.10;;;;;;;22.98;38.95;94918.28;4788544;29;20198;-80
2022/05/13 05:51:44;;;;;;;12.87;11.70;;;;;;;23.48;38.09;94919.38;4783702;30;20205;-80
2022/05/13 05:59:37;;;;;;;13.20;10.70;;;;;;;23.62;37.51;94916.13;4799797;30;20505;-80
2022/05/13 06:02:03;;;;;;;13.87;11.93;;;;;;;23.64;37.31;94917.50;4784405;30;20446;-80
2022/05/13 06:04:29;;;;;;;11.67;10.73;;;;;;;22.62;39.14;94918.22;4795786;29;20268;-80
2022/05/13 06:06:54;;;;;;;13.20;12.13;;;;;;;23.59;37.74;94904.94;4806636;29;20205;-80
2022/05/13 06:09:19;;;;;;;17.13;11.07;;;;;;;24.30;36.41;94910.34;4799621;29;20189;-80
2022/05/13 06:11:45;;;;;;;11.50;10.47;;;;;;;24.69;35.88;94902.44;4798891;30;20233;-81
2022/05/13 06:14:11;;;;;;;12.53;11.23;;;;;;;24.80;35.44;94895.16;4795112;29;20261;-81
2022/05/13 06:16:37;;;;;;;15.40;12.43;;;;;;;24.15;36.56;94903.22;4800976;29;20198;-81
2022/05/13 06:19:03;;;;;;;12.17;11.17;;;;;;;24.19;36.70;94901.59;4795177;29;20217;-80
2022/05/13 06:21:31;;;;;;;12.60;11.40;;;;;;;23.96;37.18;94903.81;4801188;29;20437;-81
2022/05/13 06:23:57;;;;;;;13.70;12.20;;;;;;;24.25;36.94;94900.50;4800475;29;20442;-80
2022/05/13 06:26:23;;;;;;;13.43;11.87;;;;;;;24.77;35.69;94893.00;4799692;30;20450;-81
2022/05/13 06:28:50;;;;;;;13.80;10.90;;;;;;;25.10;34.78;94891.44;4799611;29;20428;-80
2022/05/13 06:31:16;;;;;;;13.67;12.30;;;;;;;23.80;37.56;94886.22;4786114;29;20292;-80
2022/05/13 06:33:42;;;;;;;14.30;11.70;;;;;;;24.97;35.79;94889.41;4787487;29;20457;-80
2022/05/13 06:36:08;;;;;;;15.40;11.30;;;;;;;25.59;34.24;94887.06;4798027;29;20471;-80
2022/05/13 06:38:34;;;;;;;15.97;12.50;;;;;;;25.07;35.14;94886.66;4788342;29;20189;-80
2022/05/13 06:40:59;;;;;;;13.83;12.37;;;;;;;25.29;34.81;94882.78;4802354;29;20494;-80
2022/05/13 06:43:25;;;;;;;13.30;12.00;;;;;;;25.39;34.61;94882.66;4782235;30;20182;-80
2022/05/13 06:45:51;;;;;;;16.30;12.50;;;;;;;25.64;33.91;94894.22;4799923;29;20201;-80
2022/05/13 06:48:17;;;;;;;14.53;12.20;;;;;;;26.01;33.48;94892.78;4797614;29;20558;-80
2022/05/13 06:50:43;;;;;;;12.63;11.47;;;;;;;25.62;34.23;94888.34;4781955;30;20190;-80
2022/05/13 06:53:10;;;;;;;13.50;11.80;;;;;;;26.03;33.40;94885.28;4792384;29;20818;-80
2022/05/13 06:55:36;;;;;;;15.50;11.30;;;;;;;26.04;34.01;94881.50;4783719;30;20431;-80
2022/05/13 06:58:01;;;;;;;13.67;12.27;;;;;;;26.01;34.29;94882.88;4796675;29;20517;-81
2022/05/13 07:00:27;;;;;;;16.57;12.20;;;;;;;26.19;33.58;94877.84;4799807;30;20272;-81
2022/05/13 07:02:53;;;;;;;14.70;13.20;;;;;;;25.33;34.60;94878.44;4790632;29;20209;-81
2022/05/13 07:05:20;;;;;;;13.07;11.70;;;;;;;26.00;33.43;94875.91;4798982;29;20224;-81
2022/05/13 07:07:46;;;;;;;15.13;11.73;;;;;;;26.44;32.61;94872.13;4797178;29;20197;-81
2022/05/13 07:10:12;;;;;;;12.33;11.23;;;;;;;26.11;33.31;94876.59;4794647;29;20433;-80
2022/05/13 07:12:39;;;;;;;13.20;11.73;;;;;;;25.97;33.68;94870.31;4796894;29;20515;-81
2022/05/13 07:15:07;;;;;;;13.00;11.70;;;;;;;26.77;32.54;94871.44;4796940;29;20642;-80
2022/05/13 07:17:33;;;;;;;12.57;11.30;;;;;;;25.39;34.60;94871.16;4786544;30;20439;-80
2022/05/13 07:19:58;;;;;;;12.50;11.30;;;;;;;26.00;33.48;94875.91;4800498;29;20479;-79
2022/05/13 07:22:23;;;;;;;11.80;10.80;;;;;;;25.56;34.00;94866.16;4784336;30;20197;-79
2022/05/13 07:24:51;;;;;;;11.97;10.83;;;;;;;25.83;33.38;94865.59;4799774;29;20209;-79
2022/05/13 07:27:17;;;;;;;14.37;10.53;;;;;;;26.67;31.99;94865.16;4802709;29;20223;-80
2022/05/13 07:29:42;;;;;;;12.47;11.17;;;;;;;26.65;32.59;94863.81;4797901;29;20427;-79
2022/05/13 07:32:08;;;;;;;11.33;10.17;;;;;;;26.78;32.37;94856.94;4799680;29;20440;-79
2022/05/13 07:34:34;;;;;;;10.57;9.50;;;;;;;27.17;31.30;94855.81;4799089;29;20674;-79
2022/05/13 07:36:59;;;;;;;12.83;11.37;;;;;;;27.11;31.51;94854.25;4783524;29;20194;-79
2022/05/13 07:42:11;;;;;;;12.87;11.67;;;;;;;26.96;32.29;94847.25;4783728;29;20856;-79
2022/05/13 07:44:37;;;;;;;18.17;11.57;;;;;;;27.11;31.57;94848.88;4785447;30;20427;-79
2022/05/13 07:47:05;;;;;;;14.43;12.00;;;;;;;27.15;31.93;94849.88;4792770;29;20513;-79
2022/05/13 07:49:31;;;;;;;14.60;12.63;;;;;;;27.46;31.28;94850.22;4808072;29;20197;-79
2022/05/13 07:51:57;;;;;;;21.37;11.80;;;;;;;26.48;32.39;94845.50;4805436;29;20461;-80
2022/05/13 07:54:22;;;;;;;12.50;11.40;;;;;;;26.12;32.83;94845.97;4802468;29;20190;-79
2022/05/13 07:56:48;;;;;;;15.87;11.50;;;;;;;25.58;34.07;94847.91;4785885;30;20627;-80
2022/05/13 07:59:13;;;;;;;15.70;11.60;;;;;;;26.52;32.65;94837.66;4800283;29;20218;-79
2022/05/13 08:01:39;;;;;;;12.60;11.37;;;;;;;26.34;33.69;94841.97;4786502;29;20211;-79
2022/05/13 08:04:04;;;;;;;13.53;10.53;;;;;;;27.74;31.01;94840.28;4793395;29;20194;-79
2022/05/13 08:06:30;;;;;;;13.13;11.70;;;;;;;27.10;31.97;94833.88;4798165;29;20282;-79
2022/05/13 08:08:58;;;;;;;14.43;12.47;;;;;;;27.72;30.93;94837.09;4794897;29;20262;-80
2022/05/13 08:11:25;;;;;;;17.87;11.90;;;;;;;26.67;32.46;94832.94;4784117;30;20190;-79
2022/05/13 08:13:51;;;;;;;17.73;12.67;;;;;;;28.11;30.40;94827.72;4790456;29;20447;-79
2022/05/13 08:16:19;;;;;;;14.40;11.40;;;;;;;28.24;30.17;94829.59;4801436;29;20443;-79
2022/05/13 08:18:46;;;;;;;12.47;11.27;;;;;;;27.65;30.92;94828.63;4801387;29;20193;-79
2022/05/13 08:21:12;;;;;;;18.37;11.00;;;;;;;27.82;30.72;94822.66;4801740;29;20443;-79
2022/05/13 08:23:38;;;;;;;12.90;10.20;;;;;;;28.32;29.85;94828.09;4801436;29;20439;-79
2022/05/13 08:26:04;;;;;;;12.77;11.57;;;;;;;28.95;29.05;94825.63;4793410;29;20459;-79
2022/05/13 08:28:30;;;;;;;11.50;9.87;;;;;;;27.93;30.35;94821.38;4767982;30;20491;-79
2022/05/13 08:30:57;;;;;;;17.17;11.67;;;;;;;29.20;29.01;94821.56;4791720;29;20519;-79
2022/05/13 08:33:22;;;;;;;12.50;11.10;;;;;;;28.52;29.50;94821.50;4801463;30;20457;-79
2022/05/13 08:35:51;;;;;;;12.77;10.03;;;;;;;29.27;28.38;94818.41;4789681;29;20436;-79
2022/05/13 08:38:21;;;;;;;10.80;9.80;;;;;;;29.38;28.26;94814.34;4800931;29;20222;-79
2022/05/13 08:40:50;;;;;;;14.50;10.57;;;;;;;27.76;30.39;94811.19;4797820;29;20849;-79
2022/05/13 08:43:23;;;;;;;15.43;11.40;;;;;;;28.60;29.40;94810.00;4797674;29;20463;-78
2022/05/13 08:45:54;;;;;;;14.33;11.13;;;;;;;28.51;29.47;94808.31;4801942;29;21115;-79
2022/05/13 08:48:34;;;;;;;10.93;8.93;;;;;;;29.25;28.29;94809.84;4807492;29;20440;-79
2022/05/13 08:51:29;;;;;;;11.17;10.17;;;;;;;29.93;27.39;94805.06;4791247;29;20476;-80
2022/05/13 08:54:04;;;;;;;10.03;9.13;;;;;;;28.08;30.31;94809.50;4806971;29;20450;-80
2022/05/13 08:56:31;;;;;;;11.30;10.10;;;;;;;28.19;30.15;94802.00;4806532;29;20449;-81
2022/05/13 08:59:13;;;;;;;10.37;8.70;;;;;;;28.65;29.28;94795.63;4807903;29;20475;-80
2022/05/13 09:02:07;;;;;;;9.90;8.90;;;;;;;29.54;27.86;94801.28;4807310;29;20526;-81
2022/05/13 09:04:32;;;;;;;9.53;7.87;;;;;;;29.87;27.67;94792.84;4796386;29;20462;-80
2022/05/13 09:07:02;;;;;;;10.13;7.77;;;;;;;30.33;27.23;94791.53;4809590;29;20439;-80
2022/05/13 09:09:28;;;;;;;9.30;7.37;;;;;;;29.58;27.87;94786.06;4806876;29;20198;-80
2022/05/13 09:12:22;;;;;;;9.43;8.57;;;;;;;30.28;26.54;94783.53;4806913;29;20460;-81
2022/05/13 09:14:58;;;;;;;11.10;8.17;;;;;;;29.91;26.97;94783.00;4807121;29;20432;-80
2022/05/13 09:17:57;;;;;;;7.73;7.13;;;;;;;30.65;26.48;94773.25;4806603;29;20457;-80
2022/05/13 09:20:25;;;;;;;8.90;8.00;;;;;;;30.36;26.72;94774.69;4788867;29;20475;-81
2022/05/13 09:22:58;;;;;;;7.93;7.13;;;;;;;31.39;25.00;94776.78;4789164;29;20527;-79
2022/05/13 09:25:42;;;;;;;8.20;7.13;;;;;;;30.91;25.71;94775.97;4807643;29;20437;-80
2022/05/13 09:28:16;;;;;;;7.83;7.23;;;;;;;30.68;25.97;94768.00;4810030;29;20423;-80
2022/05/13 09:30:45;;;;;;;9.50;7.83;;;;;;;30.26;26.70;94766.84;4803504;29;20424;-80
2022/05/13 09:33:25;;;;;;;9.30;8.10;;;;;;;30.62;26.18;94757.66;4789743;29;20603;-80
2022/05/13 09:35:54;;;;;;;7.70;7.00;;;;;;;31.21;24.99;94757.94;4788589;29;20432;-79
2022/05/13 09:38:26;;;;;;;7.87;7.20;;;;;;;30.89;25.76;94748.44;4806156;29;20462;-80
2022/05/13 09:41:10;;;;;;;7.03;6.47;;;;;;;31.63;24.70;94741.09;4800788;29;20634;-80
2022/05/13 09:43:40;;;;;;;10.30;7.50;;;;;;;31.87;24.27;94735.84;4804238;29;20486;-80
2022/05/13 09:46:42;;;;;;;8.17;7.27;;;;;;;31.11;25.09;94740.16;4806084;29;20480;-80
2022/05/13 09:49:21;;;;;;;8.40;6.70;;;;;;;31.32;24.85;94732.13;4782319;29;20478;-80
2022/05/13 09:51:59;;;;;;;7.73;7.07;;;;;;;31.84;24.20;94725.66;4787032;29;20983;-80
2022/05/13 09:54:42;;;;;;;11.40;6.43;;;;;;;31.25;24.33;94729.13;4786592;29;20438;-80
2022/05/13 09:57:28;;;;;;;7.67;6.00;;;;;;;31.95;24.16;94714.44;4787111;29;20446;-81
2022/05/13 10:00:15;;;;;;;7.57;5.90;;;;;;;32.20;22.86;94704.59;4788890;29;20569;-81
2022/05/13 10:02:47;;;;;;;9.20;6.63;;;;;;;32.39;23.08;94712.25;4785269;29;20906;-81
2022/05/13 10:05:20;;;;;;;7.33;6.20;;;;;;;31.82;24.13;94710.88;4801606;29;20448;-80
2022/05/13 10:07:49;;;;;;;7.10;6.50;;;;;;;32.09;23.44;94704.97;4791330;29;20458;-80
2022/05/13 10:16:06;;;;;;;6.57;5.40;;;;;;;33.52;22.04;94691.31;4803036;29;20571;-82
2022/05/13 10:18:39;;;;;;;7.73;6.40;;;;;;;32.82;22.27;94687.47;4789657;29;20503;-81
2022/05/13 10:21:09;;;;;;;13.23;6.73;;;;;;;31.92;24.18;94689.63;4785267;29;20516;-81
2022/05/13 10:24:07;;;;;;;6.27;5.50;;;;;;;32.19;22.97;94681.34;4786609;29;20438;-80
2022/05/13 10:26:42;;;;;;;5.77;5.27;;;;;;;30.87;24.42;94680.41;4800029;29;21210;-80
2022/05/13 10:29:12;;;;;;;6.90;5.17;;;;;;;32.39;23.35;94685.94;4788448;29;20441;-80
2022/05/13 10:31:41;;;;;;;5.33;4.93;;;;;;;32.61;22.52;94681.31;4803004;29;20888;-80
2022/05/13 10:34:28;;;;;;;4.30;3.90;;;;;;;32.84;22.18;94679.78;4803194;29;20426;-80
2022/05/13 10:37:17;;;;;;;5.00;4.07;;;;;;;32.37;22.09;94671.94;4803887;29;20446;-80
2022/05/13 10:39:58;;;;;;;5.23;4.60;;;;;;;32.47;22.52;94674.22;4800865;29;20494;-80
2022/05/13 10:42:30;;;;;;;4.10;3.90;;;;;;;32.12;22.77;94665.63;4772902;30;21236;-81
2022/05/13 10:45:02;;;;;;;4.33;4.03;;;;;;;32.82;21.65;94668.50;4771667;30;20436;-80
2022/05/13 10:47:56;;;;;;;6.33;3.83;;;;;;;33.19;21.58;94665.06;4772349;30;20450;-80
2022/05/13 10:50:45;;;;;;;6.13;4.40;;;;;;;33.43;21.62;94664.28;4775099;30;20427;-80
2022/05/13 10:53:27;;;;;;;5.53;5.00;;;;;;;33.40;21.35;94664.97;4789491;29;20446;-80
2022/05/13 10:56:10;;;;;;;5.43;4.87;;;;;;;32.92;22.05;94663.78;4792636;29;20930;-80
2022/05/13 10:59:10;;;;;;;4.47;4.07;;;;;;;33.75;21.39;94657.16;4775765;30;20439;-80
2022/05/13 11:01:59;;;;;;;4.70;4.30;;;;;;;33.43;21.42;94648.00;4791882;29;20450;-81
2022/05/13 11:04:45;;;;;;;4.60;4.17;;;;;;;33.90;20.91;94652.91;4762653;30;20797;-80
2022/05/13 11:07:34;;;;;;;6.73;4.37;;;;;;;33.74;21.17;94647.41;4771692;30;20450;-81
2022/05/13 11:10:25;;;;;;;5.00;4.03;;;;;;;33.74;21.08;94633.84;4790085;29;20437;-80
2022/05/13 11:12:57;;;;;;;5.77;4.50;;;;;;;32.86;21.91;94628.75;4792832;29;20440;-80
2022/05/13 11:15:37;;;;;;;4.60;4.30;;;;;;;32.76;21.60;94626.44;4793498;30;20439;-79
2022/05/13 11:18:15;;;;;;;8.37;4.87;;;;;;;32.00;22.89;94614.06;4794867;29;20526;-80
2022/05/13 11:20:45;;;;;;;5.00;4.60;;;;;;;32.11;22.50;94609.88;4789091;29;20452;-80
2022/05/13 11:23:28;;;;;;;4.80;4.37;;;;;;;32.27;22.81;94620.88;4774773;29;20444;-80
2022/05/13 11:26:08;;;;;;;4.30;3.90;;;;;;;33.42;20.98;94617.34;4774210;30;20457;-80
2022/05/13 11:28:50;;;;;;;4.80;4.50;;;;;;;33.23;21.08;94620.63;4772659;29;20609;-80
2022/05/13 11:31:26;;;;;;;4.80;4.30;;;;;;;33.65;21.09;94623.09;4789083;29;20540;-81
2022/05/13 11:34:21;;;;;;;4.60;4.10;;;;;;;34.43;19.62;94595.81;4789247;29;20499;-81
2022/05/13 11:37:21;;;;;;;5.20;4.43;;;;;;;33.82;20.33;94599.53;4791571;29;20452;-82
2022/05/13 11:40:06;;;;;;;4.50;4.10;;;;;;;33.76;20.90;94593.56;4766706;29;21025;-81
2022/05/13 11:43:18;;;;;;;4.70;4.23;;;;;;;34.89;19.44;94592.72;4789931;30;20451;-81
2022/05/13 11:45:47;;;;;;;5.03;3.87;;;;;;;34.13;19.31;94584.47;4761142;30;20471;-80
2022/05/13 11:48:27;;;;;;;6.93;3.80;;;;;;;34.14;19.49;94596.94;4785566;30;20432;-80
2022/05/13 11:51:04;;;;;;;4.03;3.83;;;;;;;34.18;19.05;94595.13;4772782;30;21188;-80
2022/05/13 11:53:51;;;;;;;3.60;3.33;;;;;;;33.68;19.48;94589.06;4769186;30;20574;-79
2022/05/13 11:56:26;;;;;;;5.03;4.40;;;;;;;34.10;18.84;94579.75;4786312;29;20451;-81
2022/05/13 11:59:04;;;;;;;3.10;2.80;;;;;;;34.44;17.83;94577.59;4772278;30;20443;-81
2022/05/13 12:01:36;;;;;;;4.10;3.37;;;;;;;33.84;18.97;94578.25;4771029;30;20888;-81
2022/05/13 12:04:13;;;;;;;2.53;2.43;;;;;;;32.55;18.56;94576.91;4789934;30;20451;-81
2022/05/13 12:06:49;;;;;;;3.13;2.93;;;;;;;34.12;17.95;94561.97;4789307;30;20454;-80
2022/05/13 12:09:21;;;;;;;4.87;3.50;;;;;;;34.26;19.02;94552.66;4787794;30;20447;-81